Time;durP1;ratioP1;P1;durP2;ratioP2;P2;SDS_P1;SDS_P2;PMS_P1;PMS_P2;Temp;Humidity;BMP_temperature;BMP_pressure;BME280_temperature;BME280_humidity;BME280_pressure;Samples;Min_cycle;Max_cycle;Signal;HPM_P1;HPM_P2
2022/03/05 00:02:16;;;;;;;28.58;18.45;;;;;;;3.96;52.85;100630.03;10312481;28;20347;-62
2022/03/05 00:07:19;;;;;;;27.17;17.48;;;;;;;3.89;52.81;100632.09;10312541;28;20151;-63
2022/03/05 00:12:21;;;;;;;26.27;16.98;;;;;;;3.85;52.81;100625.25;10299298;28;20057;-64
2022/03/05 00:17:23;;;;;;;28.50;19.02;;;;;;;3.72;53.39;100611.78;10310275;28;20057;-62
2022/03/05 00:22:24;;;;;;;30.52;19.15;;;;;;;3.69;53.85;100625.09;10301023;28;20069;-62
2022/03/05 00:27:26;;;;;;;31.20;19.13;;;;;;;3.57;53.92;100615.16;10325435;28;20057;-62
2022/03/05 00:32:27;;;;;;;27.98;18.75;;;;;;;3.38;54.68;100610.72;10337519;28;20072;-63
2022/03/05 00:37:29;;;;;;;27.88;18.58;;;;;;;3.56;53.92;100618.69;10340500;28;20140;-62
2022/03/05 00:42:31;;;;;;;26.58;19.08;;;;;;;3.61;53.71;100627.25;10332602;28;20787;-62
2022/03/05 00:47:36;;;;;;;28.02;18.73;;;;;;;3.52;53.45;100610.09;10343375;28;20307;-61
2022/03/05 00:52:37;;;;;;;28.42;17.90;;;;;;;3.43;53.84;100598.19;10339864;28;20041;-62
2022/03/05 00:57:39;;;;;;;28.45;18.45;;;;;;;3.57;53.88;100620.41;10343252;28;21123;-61
2022/03/05 01:02:40;;;;;;;26.92;17.67;;;;;;;3.39;54.13;100607.16;10338349;28;20224;-61
2022/03/05 01:07:42;;;;;;;28.90;19.33;;;;;;;3.38;54.16;100615.09;10336200;28;20053;-61
2022/03/05 01:12:44;;;;;;;26.75;18.13;;;;;;;3.30;54.63;100610.19;10339513;28;20173;-61
2022/03/05 01:17:45;;;;;;;30.85;18.35;;;;;;;3.35;54.19;100609.06;10341421;28;20084;-61
2022/03/05 01:22:46;;;;;;;27.55;17.83;;;;;;;3.35;54.64;100605.59;10337526;28;20058;-61
2022/03/05 01:27:48;;;;;;;26.48;17.52;;;;;;;3.30;54.49;100610.19;10335670;28;20068;-61
2022/03/05 01:32:49;;;;;;;28.13;17.52;;;;;;;3.21;54.63;100598.28;10343068;28;20045;-62
2022/03/05 01:37:51;;;;;;;29.40;17.27;;;;;;;3.19;54.61;100601.00;10332781;28;20061;-62
2022/03/05 01:42:52;;;;;;;30.42;18.98;;;;;;;3.14;54.93;100604.78;10339352;28;20219;-60
2022/03/05 01:47:54;;;;;;;28.45;17.75;;;;;;;2.91;55.80;100579.47;10338930;28;20048;-62
2022/03/05 01:52:56;;;;;;;28.00;19.35;;;;;;;3.00;55.33;100594.84;10341130;28;20265;-61
2022/03/05 01:57:57;;;;;;;31.77;19.63;;;;;;;2.96;55.70;100593.28;10337736;28;20363;-62
2022/03/05 02:02:59;;;;;;;30.55;20.27;;;;;;;2.89;55.75;100597.09;10338009;28;20053;-62
2022/03/05 02:08:00;;;;;;;28.80;17.90;;;;;;;2.96;55.58;100603.81;10342088;28;20056;-60
2022/03/05 02:13:04;;;;;;;27.23;17.40;;;;;;;3.00;55.44;100602.72;10336172;28;20050;-61
2022/03/05 02:18:05;;;;;;;26.42;17.23;;;;;;;2.92;55.39;100603.06;10336804;28;20494;-61
2022/03/05 02:23:07;;;;;;;27.42;18.08;;;;;;;2.86;56.05;100597.22;10340456;28;20504;-62
2022/03/05 02:28:09;;;;;;;25.05;17.55;;;;;;;2.87;55.80;100589.28;10338857;28;20104;-60
2022/03/05 02:33:10;;;;;;;27.25;17.63;;;;;;;2.71;56.13;100583.81;10340475;28;20085;-62
2022/03/05 02:38:14;;;;;;;28.20;17.25;;;;;;;2.78;55.86;100608.06;10340263;28;20081;-60
2022/03/05 02:43:16;;;;;;;25.90;17.20;;;;;;;2.66;56.22;100591.03;10345146;28;20565;-61
2022/03/05 02:48:18;;;;;;;31.92;19.42;;;;;;;2.67;56.14;100607.66;10340529;28;20439;-60
2022/03/05 02:53:20;;;;;;;28.08;18.38;;;;;;;2.71;56.54;100599.56;10346296;28;20058;-60
2022/03/05 02:58:21;;;;;;;28.35;17.58;;;;;;;2.66;56.53;100604.19;10338346;28;20552;-62
2022/03/05 03:03:23;;;;;;;28.40;18.75;;;;;;;2.58;56.85;100599.25;10341269;28;20061;-60
2022/03/05 03:08:24;;;;;;;26.88;17.95;;;;;;;2.70;56.58;100607.53;10336417;28;20050;-60
2022/03/05 03:13:26;;;;;;;28.30;16.70;;;;;;;2.55;56.33;100588.00;10336803;28;20132;-61
2022/03/05 03:18:27;;;;;;;31.73;19.23;;;;;;;2.52;56.32;100590.75;10337298;28;20046;-59
2022/03/05 03:23:29;;;;;;;30.25;17.58;;;;;;;2.50;56.95;100603.97;10338374;28;20434;-60
2022/03/05 03:28:30;;;;;;;28.92;17.60;;;;;;;2.23;56.85;100566.53;10335066;28;20539;-61
2022/03/05 03:33:32;;;;;;;26.60;17.48;;;;;;;2.45;57.36;100616.44;10340056;28;20136;-61
2022/03/05 03:38:33;;;;;;;28.90;18.83;;;;;;;2.43;57.15;100611.25;10339018;28;20598;-61
2022/03/05 03:43:34;;;;;;;28.98;18.48;;;;;;;2.35;57.31;100617.72;10337809;28;20791;-65
2022/03/05 03:48:36;;;;;;;30.20;19.33;;;;;;;2.32;57.38;100618.69;10327804;28;20435;-61
2022/03/05 03:53:37;;;;;;;26.45;17.05;;;;;;;2.31;57.56;100622.22;10313708;28;20706;-60
2022/03/05 03:58:39;;;;;;;30.27;19.13;;;;;;;2.26;57.57;100611.06;10317333;28;20169;-60
2022/03/05 04:03:41;;;;;;;29.95;18.40;;;;;;;2.26;57.34;100611.06;10310175;28;20049;-61
2022/03/05 04:08:42;;;;;;;24.98;16.75;;;;;;;2.30;57.70;100621.38;10298802;28;20132;-60
2022/03/05 04:13:47;;;;;;;26.35;17.35;;;;;;;2.14;58.05;100593.19;10302396;28;20060;-61
2022/03/05 04:18:48;;;;;;;30.23;18.75;;;;;;;2.26;58.03;100618.94;10303116;28;20053;-61
2022/03/05 04:23:50;;;;;;;29.20;17.90;;;;;;;2.24;57.49;100605.88;10311812;28;20056;-60
2022/03/05 04:28:51;;;;;;;27.42;17.40;;;;;;;2.32;57.97;100616.06;10316297;28;20551;-61
2022/03/05 04:33:53;;;;;;;30.25;18.65;;;;;;;2.17;57.88;100609.66;10319203;28;20073;-61
2022/03/05 04:38:54;;;;;;;25.83;16.20;;;;;;;2.29;57.85;100614.41;10313811;28;20137;-60
2022/03/05 04:43:56;;;;;;;28.80;17.92;;;;;;;2.29;57.83;100611.78;10326460;28;20137;-62
2022/03/05 04:48:57;;;;;;;28.30;17.63;;;;;;;2.33;57.86;100620.41;10312839;28;20061;-61
2022/03/05 04:53:59;;;;;;;27.30;17.88;;;;;;;2.11;57.94;100613.38;10314982;28;20045;-60
2022/03/05 04:59:00;;;;;;;27.45;18.73;;;;;;;2.16;58.25;100628.09;10320366;28;20049;-59
2022/03/05 05:04:02;;;;;;;28.65;16.35;;;;;;;2.10;58.82;100635.31;10353124;28;20499;-59
2022/03/05 05:09:03;;;;;;;26.25;15.90;;;;;;;2.03;58.26;100631.22;10341788;28;20128;-60
2022/03/05 05:14:05;;;;;;;31.10;19.55;;;;;;;2.14;58.09;100640.47;10337810;28;20348;-59
2022/03/05 05:19:24;;;;;;;25.33;17.67;;;;;;;2.03;58.53;100633.84;10340048;28;20057;-60
2022/03/05 05:24:32;;;;;;;25.20;16.58;;;;;;;2.11;58.47;100652.78;10338388;28;20463;-61
2022/03/05 05:29:34;;;;;;;28.38;18.88;;;;;;;2.10;58.21;100651.09;10342039;28;20061;-59
2022/03/05 05:34:43;;;;;;;28.88;18.95;;;;;;;2.00;58.93;100649.72;10340059;28;20053;-60
2022/03/05 05:39:49;;;;;;;24.17;17.33;;;;;;;2.04;58.94;100653.94;10341533;28;20508;-60
2022/03/05 05:44:56;;;;;;;31.40;18.00;;;;;;;1.94;58.25;100634.22;10342973;28;20305;-60
2022/03/05 05:49:58;;;;;;;30.25;19.77;;;;;;;2.00;58.66;100640.97;10344160;28;20444;-60
2022/03/05 05:54:59;;;;;;;29.65;19.25;;;;;;;2.01;58.82;100655.81;10340380;28;20072;-60
2022/03/05 06:00:01;;;;;;;30.80;19.20;;;;;;;2.03;58.54;100661.88;10338530;28;20095;-60
2022/03/05 06:05:02;;;;;;;29.20;18.45;;;;;;;1.87;58.80;100657.19;10342437;28;20045;-61
2022/03/05 06:10:05;;;;;;;26.15;17.20;;;;;;;2.04;58.65;100681.97;10305048;28;20058;-59
2022/03/05 06:15:09;;;;;;;27.98;18.15;;;;;;;2.02;58.61;100686.44;10311467;28;20096;-61
2022/03/05 06:20:11;;;;;;;28.33;17.95;;;;;;;2.06;58.52;100683.63;10306429;28;20084;-61
2022/03/05 06:25:13;;;;;;;29.83;18.67;;;;;;;2.07;58.83;100674.84;10305860;28;20763;-61
2022/03/05 06:30:14;;;;;;;25.02;16.38;;;;;;;2.14;58.87;100693.84;10309111;28;20128;-59
2022/03/05 06:35:16;;;;;;;26.30;17.60;;;;;;;2.23;58.10;100692.63;10304742;28;20520;-61
2022/03/05 06:40:17;;;;;;;27.50;18.10;;;;;;;2.22;58.11;100675.13;10310198;28;20050;-60
2022/03/05 06:45:19;;;;;;;28.88;18.38;;;;;;;2.33;58.09;100678.22;10308427;28;20149;-61
2022/03/05 06:50:20;;;;;;;29.25;17.77;;;;;;;2.58;57.86;100698.25;10303810;28;20058;-62
2022/03/05 06:55:23;;;;;;;27.05;18.40;;;;;;;2.78;56.74;100698.31;10312969;28;20463;-61
2022/03/05 07:00:24;;;;;;;26.48;18.98;;;;;;;2.91;56.56;100709.19;10298188;28;20796;-61
2022/03/05 07:05:26;;;;;;;24.77;18.63;;;;;;;2.88;56.12;100672.47;10308475;28;20401;-62
2022/03/05 07:10:28;;;;;;;25.90;18.27;;;;;;;3.22;55.78;100720.19;10305614;28;20057;-63
2022/03/05 07:15:29;;;;;;;26.17;19.80;;;;;;;3.32;55.40;100721.53;10316849;28;20060;-62
2022/03/05 07:20:32;;;;;;;29.35;21.42;;;;;;;3.43;55.36;100708.75;10333571;28;20058;-63
2022/03/05 07:25:36;;;;;;;29.50;23.05;;;;;;;3.68;54.71;100731.38;10337693;28;20092;-62
2022/03/05 07:30:38;;;;;;;25.25;18.42;;;;;;;3.76;54.05;100718.69;10335226;28;20045;-63
2022/03/05 07:35:45;;;;;;;25.60;18.17;;;;;;;3.96;53.65;100724.84;10336983;28;20064;-62
2022/03/05 07:40:47;;;;;;;24.38;16.52;;;;;;;4.24;53.04;100727.06;10334956;28;20193;-62
2022/03/05 07:45:49;;;;;;;21.95;15.77;;;;;;;4.42;52.69;100733.28;10334050;28;20815;-62
2022/03/05 07:50:51;;;;;;;25.23;17.70;;;;;;;4.55;51.74;100728.28;10336840;28;20152;-61
2022/03/05 07:55:53;;;;;;;25.30;17.42;;;;;;;4.80;51.48;100741.13;10338674;28;20065;-61
2022/03/05 08:00:55;;;;;;;26.25;18.42;;;;;;;4.86;51.03;100729.41;10346962;28;20077;-60
2022/03/05 08:05:56;;;;;;;24.10;17.58;;;;;;;5.17;50.21;100741.94;10342827;28;20053;-62
2022/03/05 08:10:59;;;;;;;24.42;17.48;;;;;;;5.20;50.04;100733.88;10343010;28;20652;-63
2022/03/05 08:16:00;;;;;;;24.85;18.45;;;;;;;5.37;49.84;100734.81;10330480;28;20186;-62
2022/03/05 08:21:02;;;;;;;25.17;18.08;;;;;;;5.60;49.17;100746.81;10307643;28;20050;-61
2022/03/05 08:26:05;;;;;;;25.25;17.45;;;;;;;5.72;48.69;100727.69;10314675;28;20192;-63
2022/03/05 08:31:07;;;;;;;21.92;16.25;;;;;;;5.87;48.56;100738.38;10316143;28;20060;-62
2022/03/05 08:36:08;;;;;;;22.25;17.33;;;;;;;6.09;48.39;100749.53;10311497;28;20596;-62
2022/03/05 08:41:10;;;;;;;18.55;16.30;;;;;;;6.39;46.99;100740.03;10323106;28;20064;-61
2022/03/05 08:46:11;;;;;;;21.38;18.15;;;;;;;6.69;46.61;100743.59;10313986;28;20109;-62
2022/03/05 08:51:13;;;;;;;22.27;16.83;;;;;;;6.90;45.66;100745.97;10317525;28;20049;-67
2022/03/05 08:56:14;;;;;;;20.88;16.33;;;;;;;6.95;45.39;100745.69;10306217;28;20050;-61
2022/03/05 09:01:16;;;;;;;22.10;17.83;;;;;;;7.41;44.34;100748.31;10318904;28;20058;-61
2022/03/05 09:06:17;;;;;;;24.08;16.63;;;;;;;7.81;43.60;100753.00;10317116;28;20054;-62
2022/03/05 09:11:19;;;;;;;19.83;17.05;;;;;;;7.69;43.69;100742.22;10306391;28;20313;-61
2022/03/05 09:16:21;;;;;;;23.48;17.00;;;;;;;7.94;43.01;100744.22;10311262;28;20139;-64
2022/03/05 09:21:22;;;;;;;23.23;17.98;;;;;;;8.38;42.06;100742.38;10305963;28;20085;-63
2022/03/05 09:26:24;;;;;;;20.30;17.30;;;;;;;8.71;41.12;100738.56;10315234;28;20066;-61
2022/03/05 09:31:25;;;;;;;19.33;16.55;;;;;;;8.98;40.76;100727.06;10312172;28;20081;-64
2022/03/05 09:36:27;;;;;;;21.02;18.10;;;;;;;9.41;39.63;100731.31;10306332;28;20754;-63
2022/03/05 09:41:28;;;;;;;21.33;17.20;;;;;;;9.35;40.03;100743.19;10314321;28;20058;-64
2022/03/05 09:46:31;;;;;;;21.83;17.60;;;;;;;9.49;38.67;100724.50;10307181;28;20061;-63
2022/03/05 09:51:32;;;;;;;20.92;17.17;;;;;;;9.76;38.68;100731.53;10314690;28;20748;-64
2022/03/05 09:56:33;;;;;;;21.10;17.10;;;;;;;10.41;37.46;100721.69;10307330;28;20068;-61
2022/03/05 10:01:36;;;;;;;22.25;17.77;;;;;;;11.30;36.51;100731.06;10321756;28;20061;-64
2022/03/05 10:06:38;;;;;;;21.15;17.10;;;;;;;12.08;34.89;100725.13;10313218;28;20054;-62
2022/03/05 10:11:40;;;;;;;19.33;17.27;;;;;;;12.84;33.76;100712.72;10317878;28;20050;-63
2022/03/05 10:16:41;;;;;;;18.45;16.40;;;;;;;15.61;29.27;100707.19;10308439;28;20065;-62
2022/03/05 10:22:08;;;;;;;18.83;16.83;;;;;;;18.31;24.87;100708.03;10304605;28;20042;-59
2022/03/05 10:27:10;;;;;;;17.98;15.98;;;;;;;19.31;23.05;100693.72;10302066;28;20111;-62
2022/03/05 10:32:12;;;;;;;17.80;16.00;;;;;;;18.77;23.16;100699.56;10308543;28;20076;-63
2022/03/05 10:37:14;;;;;;;17.52;15.65;;;;;;;17.11;25.37;100702.44;10313909;28;20512;-63
2022/03/05 10:42:25;;;;;;;18.13;16.35;;;;;;;17.19;25.22;100698.97;10378838;27;20411;-61
2022/03/05 10:47:40;;;;;;;18.50;15.68;;;;;;;17.62;24.40;100678.38;10331390;28;20397;-63
2022/03/05 10:52:54;;;;;;;16.08;14.38;;;;;;;21.98;19.97;100683.63;10372862;28;20059;-63
2022/03/05 10:57:56;;;;;;;18.17;16.15;;;;;;;24.96;16.12;100689.84;10371815;28;20053;-61
2022/03/05 11:03:00;;;;;;;16.63;14.93;;;;;;;27.05;14.49;100667.16;10372634;28;20148;-59
2022/03/05 11:08:04;;;;;;;14.48;12.98;;;;;;;27.63;13.57;100673.41;10371000;28;20123;-60
2022/03/05 11:13:06;;;;;;;15.90;14.30;;;;;;;28.29;12.82;100662.78;10372883;28;25312;-62
2022/03/05 11:18:09;;;;;;;14.02;12.77;;;;;;;28.92;12.47;100643.09;10366715;28;20413;-61
2022/03/05 11:23:15;;;;;;;12.95;11.75;;;;;;;29.23;11.52;100651.25;10368018;28;20056;-60
2022/03/05 11:28:20;;;;;;;9.75;8.90;;;;;;;29.36;10.53;100655.66;10364184;28;20562;-60
2022/03/05 11:33:33;;;;;;;10.57;9.50;;;;;;;30.04;10.52;100642.34;10364087;28;20068;-59
2022/03/05 11:38:37;;;;;;;11.10;9.82;;;;;;;30.77;9.56;100624.22;10368884;28;20045;-61
2022/03/05 11:43:42;;;;;;;10.38;9.48;;;;;;;30.74;10.00;100643.13;10371963;28;20105;-62
2022/03/05 11:49:02;;;;;;;9.63;8.73;;;;;;;32.12;8.76;100632.50;10372273;28;20145;-66
2022/03/05 11:54:15;;;;;;;9.40;8.60;;;;;;;27.46;11.26;100630.25;10346670;28;20049;-61
2022/03/05 11:59:39;;;;;;;8.05;7.35;;;;;;;20.41;16.08;100627.34;10344786;28;20073;-59
2022/03/05 12:04:49;;;;;;;7.90;7.20;;;;;;;21.32;14.51;100597.69;10343320;28;20102;-65
2022/03/05 12:10:02;;;;;;;6.60;6.00;;;;;;;27.90;10.48;100618.41;10343524;28;20444;-61
2022/03/05 12:15:04;;;;;;;7.15;6.55;;;;;;;29.65;8.91;100607.25;10337636;28;20639;-60
2022/03/05 12:20:12;;;;;;;8.27;7.50;;;;;;;23.55;13.06;100608.78;10342361;28;20101;-61
2022/03/05 12:25:13;;;;;;;8.95;8.15;;;;;;;20.19;16.02;100602.81;10343366;28;20054;-60
2022/03/05 12:30:15;;;;;;;10.05;9.10;;;;;;;18.25;18.20;100590.13;10340976;28;20072;-60
2022/03/05 12:35:17;;;;;;;8.60;7.80;;;;;;;17.30;18.76;100596.47;10341585;28;20361;-62
2022/03/05 12:40:19;;;;;;;8.30;7.50;;;;;;;17.88;18.07;100591.38;10335774;28;20053;-61
2022/03/05 12:45:28;;;;;;;7.50;6.80;;;;;;;24.96;12.49;100591.81;10342116;28;20147;-61
2022/03/05 12:50:36;;;;;;;7.85;7.05;;;;;;;28.35;9.96;100577.81;10338760;28;20056;-61
2022/03/05 12:55:40;;;;;;;8.10;7.40;;;;;;;22.75;13.29;100580.00;10340498;28;20119;-62
2022/03/05 13:00:45;;;;;;;8.80;7.90;;;;;;;18.94;16.90;100587.16;10334883;28;20166;-62
2022/03/05 13:05:49;;;;;;;8.07;7.38;;;;;;;18.42;17.68;100564.06;10338997;28;20065;-60
2022/03/05 13:11:03;;;;;;;8.48;7.68;;;;;;;16.74;18.53;100581.59;10340611;28;20515;-63
2022/03/05 13:16:10;;;;;;;10.48;9.43;;;;;;;15.25;20.60;100580.91;10341029;28;20247;-64
2022/03/05 13:21:12;;;;;;;9.20;8.32;;;;;;;14.75;21.59;100580.19;10335800;28;20686;-63
2022/03/05 13:26:13;;;;;;;11.63;8.98;;;;;;;14.21;22.38;100562.81;10334520;28;20059;-63
2022/03/05 13:31:15;;;;;;;10.05;8.48;;;;;;;14.45;22.59;100581.97;10336586;28;20128;-62
2022/03/05 13:36:26;;;;;;;8.95;8.05;;;;;;;14.52;22.55;100578.75;10336881;28;20055;-63
2022/03/05 13:41:33;;;;;;;9.32;8.32;;;;;;;14.18;22.97;100566.63;10334014;28;20056;-61
2022/03/05 13:46:34;;;;;;;10.23;9.25;;;;;;;13.65;23.22;100567.78;10334808;28;20077;-62
2022/03/05 13:51:36;;;;;;;11.05;9.23;;;;;;;13.49;23.40;100564.75;10333780;28;20069;-60
2022/03/05 13:56:47;;;;;;;10.00;9.05;;;;;;;13.32;23.75;100572.41;10333672;28;20241;-61
2022/03/05 14:01:54;;;;;;;9.73;8.82;;;;;;;13.05;24.56;100567.63;10345885;28;21141;-61
2022/03/05 14:06:57;;;;;;;9.95;8.52;;;;;;;12.66;25.10;100568.19;10337541;28;20768;-62
2022/03/05 14:12:03;;;;;;;9.88;8.88;;;;;;;12.57;25.13;100552.97;10331997;28;20064;-62
2022/03/05 14:17:05;;;;;;;9.95;8.75;;;;;;;12.50;25.61;100557.94;10336476;28;20171;-60
2022/03/05 14:22:11;;;;;;;10.52;9.43;;;;;;;12.44;26.03;100560.31;10334363;28;20061;-60
2022/03/05 14:27:15;;;;;;;10.38;8.77;;;;;;;12.29;25.99;100552.59;10333378;28;20077;-59
2022/03/05 14:32:16;;;;;;;9.27;8.37;;;;;;;12.34;26.01;100558.41;10337276;28;20189;-59
2022/03/05 14:37:18;;;;;;;10.38;8.63;;;;;;;12.25;25.31;100555.63;10334191;28;20060;-61
2022/03/05 14:42:19;;;;;;;8.85;7.40;;;;;;;12.01;25.05;100485.50;10335821;28;20049;-61
2022/03/05 14:47:20;;;;;;;9.10;8.15;;;;;;;14.59;22.57;100555.75;10335867;28;20046;-59
2022/03/05 14:52:22;;;;;;;8.57;7.75;;;;;;;13.68;22.94;100546.09;10338481;28;20089;-59
2022/03/05 14:57:24;;;;;;;8.50;7.40;;;;;;;12.77;24.26;100550.44;10334745;28;20053;-59
2022/03/05 15:02:26;;;;;;;8.85;7.10;;;;;;;12.02;25.30;100545.91;10336228;28;20060;-62
2022/03/05 15:07:27;;;;;;;10.02;9.13;;;;;;;11.78;25.81;100558.53;10339611;28;20065;-60
2022/03/05 15:12:34;;;;;;;7.47;6.57;;;;;;;11.49;25.79;100543.88;10337418;28;20199;-61
2022/03/05 15:17:36;;;;;;;8.15;7.35;;;;;;;11.38;26.15;100537.72;10336064;28;20733;-63
2022/03/05 15:22:37;;;;;;;7.35;6.63;;;;;;;11.37;25.83;100547.53;10331463;28;20107;-60
2022/03/05 15:27:39;;;;;;;8.10;7.13;;;;;;;11.02;26.43;100542.28;10341371;28;20164;-61
2022/03/05 15:32:40;;;;;;;7.65;6.95;;;;;;;10.90;26.59;100547.63;10340285;28;20183;-61
2022/03/05 15:37:42;;;;;;;7.57;6.88;;;;;;;10.52;27.05;100540.75;10340306;28;20516;-62
2022/03/05 15:42:43;;;;;;;8.23;7.30;;;;;;;10.17;27.89;100549.53;10338518;28;20577;-61
2022/03/05 15:47:45;;;;;;;8.70;7.13;;;;;;;10.13;28.03;100556.03;10339138;28;20057;-61
2022/03/05 15:52:47;;;;;;;9.00;7.53;;;;;;;9.91;28.29;100531.03;10342302;28;20053;-62
2022/03/05 15:57:48;;;;;;;7.95;6.65;;;;;;;9.91;28.77;100554.97;10340351;28;20499;-58
2022/03/05 16:02:50;;;;;;;8.05;7.10;;;;;;;9.87;28.31;100542.00;10341241;28;20053;-60
2022/03/05 16:07:52;;;;;;;8.38;7.57;;;;;;;9.91;28.32;100564.75;10337592;28;20062;-61
2022/03/05 16:12:55;;;;;;;8.40;7.60;;;;;;;9.78;28.75;100559.47;10340408;28;20054;-61
2022/03/05 16:17:56;;;;;;;8.48;7.57;;;;;;;9.48;28.83;100547.41;10343644;28;20057;-61
2022/03/05 16:22:58;;;;;;;8.10;7.30;;;;;;;9.19;29.11;100547.66;10340049;28;20150;-61
2022/03/05 16:28:00;;;;;;;8.70;7.47;;;;;;;9.34;29.55;100556.38;10339447;28;20118;-60
2022/03/05 16:33:02;;;;;;;7.97;7.00;;;;;;;9.11;29.51;100538.53;10339480;28;20642;-61
2022/03/05 16:38:04;;;;;;;8.30;6.88;;;;;;;9.00;29.79;100557.88;10341746;28;20188;-60
2022/03/05 16:43:05;;;;;;;9.20;7.43;;;;;;;8.90;30.19;100559.47;10344511;28;20048;-60
2022/03/05 16:48:07;;;;;;;8.48;7.55;;;;;;;8.57;30.44;100555.47;10339765;28;20144;-60
2022/03/05 16:53:08;;;;;;;8.63;7.00;;;;;;;8.47;30.49;100556.09;10339567;28;20052;-61
2022/03/05 16:58:09;;;;;;;9.90;7.75;;;;;;;8.39;30.70;100566.38;10339777;28;21235;-62
2022/03/05 17:03:12;;;;;;;9.63;7.97;;;;;;;8.37;31.18;100547.03;10337449;28;20116;-60
2022/03/05 17:08:14;;;;;;;9.10;8.00;;;;;;;8.26;31.03;100549.56;10350705;28;20053;-60
2022/03/05 17:13:15;;;;;;;8.57;7.78;;;;;;;8.25;31.12;100566.41;10337681;28;20053;-60
2022/03/05 17:18:18;;;;;;;9.27;7.60;;;;;;;8.12;31.29;100561.91;10333741;28;20140;-60
2022/03/05 17:23:20;;;;;;;7.82;7.00;;;;;;;8.05;31.85;100576.53;10334310;28;20049;-59
2022/03/05 17:28:22;;;;;;;7.90;7.10;;;;;;;7.91;31.81;100564.16;10332668;28;20099;-60
2022/03/05 17:33:24;;;;;;;9.10;7.55;;;;;;;7.94;31.52;100590.47;10337592;28;20095;-61
2022/03/05 17:38:25;;;;;;;8.07;7.22;;;;;;;7.73;32.52;100571.50;10333118;28;20421;-61
2022/03/05 17:43:27;;;;;;;9.93;8.32;;;;;;;7.75;32.87;100603.19;10337787;28;20195;-60
2022/03/05 17:48:30;;;;;;;10.10;9.18;;;;;;;7.83;33.50;100605.34;10334341;28;20045;-59
2022/03/05 17:53:31;;;;;;;9.95;7.97;;;;;;;7.65;33.06;100584.34;10338851;28;20335;-60
2022/03/05 17:58:32;;;;;;;9.80;8.55;;;;;;;7.69;33.35;100599.13;10324567;28;20053;-60
2022/03/05 18:03:34;;;;;;;9.68;7.93;;;;;;;7.40;33.02;100580.59;10334204;28;20328;-62
2022/03/05 18:08:36;;;;;;;10.40;8.68;;;;;;;7.50;33.35;100604.72;10338762;28;20407;-61
2022/03/05 18:13:38;;;;;;;9.35;8.40;;;;;;;7.34;33.66;100614.53;10334014;28;20147;-59
2022/03/05 18:18:39;;;;;;;10.38;7.90;;;;;;;7.21;33.93;100606.53;10332208;28;20143;-60
2022/03/05 18:23:41;;;;;;;11.95;10.55;;;;;;;7.20;33.50;100616.25;10338364;28;20475;-60
2022/03/05 18:28:42;;;;;;;10.45;9.40;;;;;;;7.08;34.01;100607.25;10333848;28;20168;-58
2022/03/05 18:33:45;;;;;;;9.45;8.45;;;;;;;7.16;33.95;100620.03;10336118;28;20096;-61
2022/03/05 18:38:46;;;;;;;9.02;8.02;;;;;;;7.21;33.69;100622.41;10338364;28;20131;-60
2022/03/05 18:43:48;;;;;;;9.50;8.48;;;;;;;7.13;33.84;100604.34;10337559;28;20570;-58
2022/03/05 18:48:49;;;;;;;10.88;8.77;;;;;;;7.27;33.95;100635.28;10341680;28;20524;-59
2022/03/05 18:53:51;;;;;;;11.23;10.07;;;;;;;7.29;34.09;100641.31;10335821;28;20173;-60
2022/03/05 18:58:54;;;;;;;13.20;10.57;;;;;;;7.19;34.18;100643.69;10331437;28;20058;-61
2022/03/05 19:03:56;;;;;;;13.40;10.25;;;;;;;7.13;34.33;100657.28;10340156;28;20781;-61
2022/03/05 19:08:57;;;;;;;10.90;9.70;;;;;;;6.87;34.16;100627.06;10339388;28;20085;-61
2022/03/05 19:13:59;;;;;;;11.82;10.02;;;;;;;7.18;34.23;100643.78;10340682;28;20199;-63
2022/03/05 19:19:01;;;;;;;11.77;9.68;;;;;;;7.00;33.65;100633.34;10340753;28;20761;-61
2022/03/05 19:24:03;;;;;;;11.85;10.02;;;;;;;7.07;34.05;100642.63;10344591;28;20136;-63
2022/03/05 19:29:05;;;;;;;11.73;10.30;;;;;;;6.93;33.80;100647.03;10342626;28;20083;-62
2022/03/05 19:34:06;;;;;;;9.50;8.02;;;;;;;6.94;33.31;100652.22;10337123;28;20061;-60
2022/03/05 19:39:08;;;;;;;9.48;8.27;;;;;;;6.88;33.83;100642.84;10342861;28;20068;-60
2022/03/05 19:44:10;;;;;;;9.07;8.13;;;;;;;7.08;34.72;100660.19;10342102;28;20055;-60
2022/03/05 19:49:11;;;;;;;12.43;9.48;;;;;;;7.06;33.41;100651.50;10342038;28;20049;-61
2022/03/05 19:54:13;;;;;;;10.23;8.43;;;;;;;6.92;33.41;100656.78;10342396;28;20502;-62
2022/03/05 19:59:14;;;;;;;10.02;9.02;;;;;;;6.78;33.23;100662.84;10346710;28;20567;-61
2022/03/05 20:04:16;;;;;;;11.68;9.10;;;;;;;6.88;33.86;100668.47;10344899;28;20095;-61
2022/03/05 20:09:18;;;;;;;10.25;9.00;;;;;;;6.89;33.54;100667.50;10343976;28;20056;-61
2022/03/05 20:14:20;;;;;;;9.80;8.75;;;;;;;6.79;33.62;100659.25;10335783;28;20151;-61
2022/03/05 20:19:22;;;;;;;11.82;9.23;;;;;;;6.72;33.58;100666.72;10341775;28;20654;-60
2022/03/05 20:24:24;;;;;;;11.00;8.77;;;;;;;6.79;33.72;100674.31;10336332;28;20052;-61
2022/03/05 20:29:26;;;;;;;11.02;9.43;;;;;;;6.83;33.66;100675.81;10339196;28;20131;-67
2022/03/05 20:34:27;;;;;;;8.85;7.78;;;;;;;6.81;33.44;100657.38;10344615;28;20573;-63
2022/03/05 20:39:28;;;;;;;10.90;9.30;;;;;;;6.79;33.41;100679.59;10345245;28;20058;-65
2022/03/05 20:44:30;;;;;;;10.77;8.80;;;;;;;6.67;34.33;100676.69;10345368;28;20084;-63
2022/03/05 20:49:32;;;;;;;10.10;8.77;;;;;;;6.78;33.46;100688.47;10345477;28;20050;-62
2022/03/05 20:54:36;;;;;;;9.50;7.82;;;;;;;6.75;33.49;100688.63;10349849;28;20100;-66
2022/03/05 20:59:37;;;;;;;9.88;8.32;;;;;;;6.66;33.50;100688.22;10344231;28;20673;-65
2022/03/05 21:04:39;;;;;;;9.50;8.32;;;;;;;6.67;33.94;100692.56;10345356;28;21939;-63
2022/03/05 21:09:41;;;;;;;8.90;8.00;;;;;;;6.67;33.83;100687.28;10341568;28;20153;-61
2022/03/05 21:14:43;;;;;;;9.77;8.23;;;;;;;6.68;33.86;100690.78;10338720;28;20525;-61
2022/03/05 21:19:44;;;;;;;9.10;8.20;;;;;;;6.63;33.97;100685.75;10338774;28;20056;-61
2022/03/05 21:24:46;;;;;;;9.82;8.32;;;;;;;6.57;33.89;100675.50;10334493;28;20187;-61
2022/03/05 21:29:47;;;;;;;8.80;7.90;;;;;;;6.76;34.31;100695.66;10325814;28;20053;-61
2022/03/05 21:34:49;;;;;;;8.77;7.88;;;;;;;6.61;34.57;100695.56;10335764;28;20064;-60
2022/03/05 21:39:51;;;;;;;8.93;8.02;;;;;;;6.34;34.50;100659.16;10333962;28;20156;-61
2022/03/05 21:44:52;;;;;;;10.20;7.90;;;;;;;6.61;34.30;100692.94;10334501;28;20813;-61
2022/03/05 21:49:54;;;;;;;8.55;7.68;;;;;;;6.63;34.79;100696.31;10339167;28;20052;-60
2022/03/05 21:54:55;;;;;;;9.90;8.88;;;;;;;6.63;34.75;100698.97;10350662;28;20420;-60
2022/03/05 21:59:57;;;;;;;9.90;8.77;;;;;;;6.61;34.61;100700.88;10341090;28;20135;-63
2022/03/05 22:04:58;;;;;;;9.93;7.93;;;;;;;6.52;34.56;100701.38;10332613;28;21185;-61
2022/03/05 22:10:00;;;;;;;9.77;8.68;;;;;;;6.42;34.85;100686.97;10336390;28;20263;-60
2022/03/05 22:15:01;;;;;;;12.70;8.82;;;;;;;6.22;35.31;100664.31;10336238;28;20060;-60
2022/03/05 22:20:04;;;;;;;10.38;8.90;;;;;;;6.29;35.11;100692.94;10332523;28;20941;-60
2022/03/05 22:25:07;;;;;;;9.73;8.60;;;;;;;6.23;35.46;100677.44;10334416;28;20159;-60
2022/03/05 22:30:09;;;;;;;9.50;8.07;;;;;;;6.11;36.32;100701.88;10337514;28;20065;-63
2022/03/05 22:35:11;;;;;;;10.77;9.25;;;;;;;6.07;36.28;100708.28;10333584;28;20598;-60
2022/03/05 22:40:13;;;;;;;10.77;9.70;;;;;;;5.89;36.62;100668.66;10338592;28;20128;-61
2022/03/05 22:45:16;;;;;;;11.40;9.80;;;;;;;5.88;36.50;100666.13;10334790;28;20053;-60
2022/03/05 22:50:17;;;;;;;11.23;9.10;;;;;;;5.99;36.80;100687.53;10328268;28;20136;-62
2022/03/05 22:55:19;;;;;;;12.50;9.00;;;;;;;5.95;37.04;100692.13;10340296;28;20184;-60
2022/03/05 23:00:26;;;;;;;10.50;9.43;;;;;;;5.97;37.15;100679.69;10337561;28;20129;-61
2022/03/05 23:05:28;;;;;;;10.52;9.10;;;;;;;5.88;36.65;100674.03;10339520;28;20053;-61